Time;durP1;ratioP1;P1;durP2;ratioP2;P2;SDS_P1;SDS_P2;PMS_P1;PMS_P2;Temp;Humidity;BMP_temperature;BMP_pressure;BME280_temperature;BME280_humidity;BME280_pressure;Samples;Min_cycle;Max_cycle;Signal;HPM_P1;HPM_P2
2022/08/08 04:02:03;;;;;;;4.97;2.00;;;17.00;99.90;;;;;;5279648;23;20505;-73
2022/08/08 04:04:36;;;;;;;3.10;2.50;;;17.00;99.90;;;;;;5014298;28;20438;-73
2022/08/08 04:07:03;;;;;;;2.63;2.43;;;17.00;99.90;;;;;;5014902;28;20451;-74
2022/08/08 04:09:30;;;;;;;2.17;1.97;;;16.90;99.90;;;;;;5014537;28;20450;-73
2022/08/08 04:11:59;;;;;;;2.30;2.10;;;16.90;99.90;;;;;;5014576;28;20481;-74
2022/08/08 04:14:26;;;;;;;2.90;2.60;;;16.80;99.90;;;;;;5014766;28;20451;-73
2022/08/08 04:16:53;;;;;;;3.60;2.17;;;16.90;99.90;;;;;;5014727;28;20477;-73
2022/08/08 04:19:21;;;;;;;5.40;2.47;;;16.80;99.90;;;;;;5014548;28;20454;-73
2022/08/08 04:21:48;;;;;;;3.27;2.30;;;16.80;99.90;;;;;;5014097;28;21013;-72
2022/08/08 04:24:15;;;;;;;2.70;2.20;;;16.80;99.90;;;;;;5014560;28;20455;-73
2022/08/08 04:26:42;;;;;;;3.40;2.33;;;16.80;99.90;;;;;;5014739;28;20486;-73
2022/08/08 04:29:09;;;;;;;3.07;2.77;;;16.70;99.90;;;;;;5014973;28;20459;-73
2022/08/08 04:31:36;;;;;;;3.00;2.63;;;16.80;99.90;;;;;;5014084;28;20574;-74
2022/08/08 04:34:03;;;;;;;5.07;2.67;;;16.70;99.90;;;;;;5014122;28;20800;-74
2022/08/08 04:36:31;;;;;;;2.37;2.17;;;16.70;99.90;;;;;;5014222;28;20515;-73
2022/08/08 04:38:58;;;;;;;3.67;2.67;;;16.70;99.90;;;;;;5013919;28;20943;-74
2022/08/08 04:41:24;;;;;;;3.00;2.17;;;16.60;99.90;;;;;;5013995;28;20477;-74
2022/08/08 04:43:51;;;;;;;2.53;2.33;;;16.70;99.90;;;;;;5013849;28;20495;-73
2022/08/08 04:46:18;;;;;;;2.90;2.40;;;16.60;99.90;;;;;;5013292;28;20455;-73
2022/08/08 04:48:45;;;;;;;4.00;2.27;;;16.60;99.90;;;;;;5013994;28;20475;-74
2022/08/08 04:51:12;;;;;;;3.60;2.30;;;16.60;99.90;;;;;;5013969;28;20475;-73
2022/08/08 04:53:40;;;;;;;2.20;2.00;;;16.60;99.90;;;;;;5013943;28;20857;-73
2022/08/08 04:56:07;;;;;;;2.93;2.13;;;16.60;99.90;;;;;;5013434;28;20456;-75
2022/08/08 04:58:34;;;;;;;2.07;1.87;;;16.60;99.90;;;;;;5013776;28;20458;-73
2022/08/08 05:01:01;;;;;;;2.37;2.17;;;16.60;99.90;;;;;;5013112;28;20482;-72
2022/08/08 05:03:27;;;;;;;2.40;2.20;;;16.50;99.90;;;;;;5013225;28;21014;-72
2022/08/08 05:05:54;;;;;;;2.20;2.00;;;16.60;99.90;;;;;;5013220;28;20459;-72
2022/08/08 05:08:21;;;;;;;3.47;2.20;;;16.50;99.90;;;;;;5013534;28;20463;-74
2022/08/08 05:10:49;;;;;;;2.50;2.20;;;16.50;99.90;;;;;;5013232;28;20481;-72
2022/08/08 05:13:16;;;;;;;2.90;2.63;;;16.50;99.90;;;;;;5013312;28;20458;-72
2022/08/08 05:15:43;;;;;;;2.00;1.77;;;16.60;99.90;;;;;;5013211;28;20462;-72
2022/08/08 05:18:10;;;;;;;4.23;2.30;;;16.50;99.90;;;;;;5013753;28;20455;-73
2022/08/08 05:20:37;;;;;;;2.33;2.13;;;16.50;99.90;;;;;;5013284;28;20475;-72
2022/08/08 05:23:04;;;;;;;2.53;2.17;;;16.50;99.90;;;;;;5013234;28;20490;-73
2022/08/08 05:25:31;;;;;;;3.10;2.27;;;16.50;99.90;;;;;;5013077;28;20485;-72
2022/08/08 05:27:59;;;;;;;3.27;2.30;;;16.50;99.90;;;;;;5012957;28;20459;-75
2022/08/08 05:30:26;;;;;;;2.57;2.37;;;16.50;99.90;;;;;;5012801;28;20451;-73
2022/08/08 05:32:53;;;;;;;3.60;2.67;;;16.60;99.90;;;;;;5013016;28;20537;-72
2022/08/08 05:35:22;;;;;;;3.67;2.37;;;16.60;99.90;;;;;;5012410;28;20455;-72
2022/08/08 05:37:54;;;;;;;7.00;2.50;;;16.60;99.90;;;;;;5012819;28;20472;-72
2022/08/08 05:40:21;;;;;;;2.10;1.90;;;16.60;99.90;;;;;;5012987;28;20455;-73
2022/08/08 05:42:51;;;;;;;3.20;1.97;;;16.70;99.90;;;;;;5012904;28;20490;-72
2022/08/08 05:45:19;;;;;;;2.37;2.10;;;16.70;99.90;;;;;;5012697;28;20455;-72
2022/08/08 05:47:46;;;;;;;1.87;1.73;;;16.70;99.90;;;;;;5012784;28;20455;-72
2022/08/08 05:50:13;;;;;;;3.00;2.00;;;16.80;99.90;;;;;;5012479;28;21062;-72
2022/08/08 05:52:40;;;;;;;3.47;2.67;;;16.80;99.90;;;;;;5012537;28;20554;-72
2022/08/08 05:55:09;;;;;;;3.70;2.80;;;16.80;99.90;;;;;;5012344;28;20516;-72
2022/08/08 05:57:37;;;;;;;3.43;2.40;;;16.90;99.90;;;;;;5012752;28;20459;-72
2022/08/08 06:00:07;;;;;;;2.90;2.43;;;16.90;99.90;;;;;;5012468;28;20950;-72
2022/08/08 06:05:21;;;;;;;2.80;2.37;;;16.90;99.90;;;;;;5012055;28;20433;-73
2022/08/08 06:07:50;;;;;;;2.10;1.93;;;17.00;99.90;;;;;;5012673;28;20451;-72
2022/08/08 06:10:19;;;;;;;2.93;2.50;;;17.00;99.90;;;;;;5012477;28;20462;-74
2022/08/08 06:12:48;;;;;;;6.93;2.70;;;17.00;99.90;;;;;;5012284;28;20836;-72
2022/08/08 06:15:15;;;;;;;4.53;2.50;;;17.00;99.90;;;;;;5011939;28;20938;-72
2022/08/08 06:17:43;;;;;;;4.20;2.40;;;17.10;99.90;;;;;;5012126;28;20469;-73
2022/08/08 06:20:12;;;;;;;5.67;2.50;;;17.10;99.90;;;;;;5012228;28;20454;-74
2022/08/08 06:22:39;;;;;;;6.27;3.10;;;17.10;99.90;;;;;;5012033;28;20461;-72
2022/08/08 06:25:08;;;;;;;3.50;2.30;;;17.20;99.90;;;;;;5012033;28;20463;-73
2022/08/08 06:27:40;;;;;;;4.87;2.57;;;17.20;99.90;;;;;;5012049;28;20875;-72
2022/08/08 06:30:09;;;;;;;5.73;2.53;;;17.20;99.90;;;;;;5011990;28;20997;-73
2022/08/08 06:32:41;;;;;;;9.63;2.80;;;17.20;99.90;;;;;;5012632;28;20479;-73
2022/08/08 06:35:12;;;;;;;4.30;2.60;;;17.20;99.90;;;;;;5012037;28;20470;-72
2022/08/08 06:37:44;;;;;;;9.53;2.70;;;17.20;99.90;;;;;;5011955;28;20907;-73
2022/08/08 06:40:13;;;;;;;8.33;2.30;;;17.30;99.90;;;;;;5012179;28;20445;-73
2022/08/08 06:42:45;;;;;;;5.00;2.53;;;17.30;99.90;;;;;;5012103;28;20491;-73
2022/08/08 06:45:13;;;;;;;7.10;3.07;;;17.40;99.90;;;;;;5011654;28;20907;-72
2022/08/08 06:47:41;;;;;;;9.77;2.70;;;17.40;99.90;;;;;;5014301;28;20458;-72
2022/08/08 06:50:10;;;;;;;5.13;2.73;;;17.40;99.90;;;;;;5015914;28;20450;-72
2022/08/08 06:52:38;;;;;;;11.80;2.63;;;17.50;99.90;;;;;;5015770;28;20459;-73
2022/08/08 06:55:06;;;;;;;4.50;2.50;;;17.50;99.90;;;;;;5015607;28;20462;-74
2022/08/08 06:57:33;;;;;;;5.07;2.63;;;17.50;99.90;;;;;;5015522;28;20479;-73
2022/08/08 07:00:00;;;;;;;5.53;2.50;;;17.60;99.90;;;;;;5015719;28;20927;-72
2022/08/08 07:02:32;;;;;;;5.57;2.80;;;17.60;99.90;;;;;;5015452;28;20501;-73
2022/08/08 07:05:04;;;;;;;3.23;2.40;;;17.70;99.90;;;;;;5015793;28;20697;-73
2022/08/08 07:07:43;;;;;;;3.93;2.47;;;17.70;99.90;;;;;;5015534;28;20855;-73
2022/08/08 07:10:11;;;;;;;5.03;2.87;;;17.80;99.90;;;;;;5015418;28;20465;-73
2022/08/08 07:12:42;;;;;;;4.17;2.40;;;17.80;99.90;;;;;;5015468;28;20497;-73
2022/08/08 07:15:11;;;;;;;3.27;2.70;;;17.90;99.90;;;;;;5015391;28;20458;-73
2022/08/08 07:17:45;;;;;;;2.73;2.47;;;18.00;99.90;;;;;;5015413;28;20459;-73
2022/08/08 07:20:17;;;;;;;3.40;2.07;;;18.10;99.90;;;;;;5015282;28;20505;-73
2022/08/08 07:22:57;;;;;;;3.27;2.90;;;18.20;99.90;;;;;;5015712;28;20473;-73
2022/08/08 07:25:25;;;;;;;6.03;2.30;;;18.20;99.90;;;;;;5015291;28;20439;-72
2022/08/08 07:27:59;;;;;;;4.20;2.63;;;18.30;99.90;;;;;;5015565;28;20450;-73
2022/08/08 07:30:26;;;;;;;7.03;2.80;;;18.40;99.90;;;;;;5015365;28;20435;-73
2022/08/08 07:32:54;;;;;;;3.03;2.37;;;18.50;99.90;;;;;;5015378;28;20458;-73
2022/08/08 07:35:21;;;;;;;4.63;2.63;;;18.60;99.90;;;;;;5015167;28;20545;-73
2022/08/08 07:37:50;;;;;;;3.30;2.80;;;18.60;99.90;;;;;;5015355;28;20454;-75
2022/08/08 07:40:17;;;;;;;3.17;2.50;;;18.70;99.90;;;;;;5015101;28;20461;-73
2022/08/08 07:42:46;;;;;;;3.73;2.60;;;18.80;99.90;;;;;;5015024;28;20450;-73
2022/08/08 07:45:12;;;;;;;2.90;2.63;;;18.90;99.90;;;;;;5014473;28;21021;-74
2022/08/08 07:47:39;;;;;;;3.10;2.67;;;19.10;99.90;;;;;;5014998;28;20454;-72
2022/08/08 07:50:07;;;;;;;3.10;2.70;;;19.20;99.90;;;;;;5015147;28;20455;-73
2022/08/08 07:52:34;;;;;;;3.20;2.90;;;19.30;99.90;;;;;;5014596;28;20482;-73
2022/08/08 07:55:06;;;;;;;4.90;3.10;;;19.40;99.90;;;;;;5014556;28;20455;-74
2022/08/08 07:57:41;;;;;;;7.00;3.30;;;19.50;99.90;;;;;;5014190;28;20962;-74
2022/08/08 08:00:10;;;;;;;3.50;2.80;;;19.70;99.90;;;;;;5014492;28;21012;-73
2022/08/08 08:02:40;;;;;;;4.67;3.47;;;19.80;99.90;;;;;;5014868;28;20451;-73
2022/08/08 08:05:16;;;;;;;3.93;2.93;;;20.00;99.90;;;;;;5014359;28;20499;-73
2022/08/08 08:07:43;;;;;;;3.37;2.80;;;20.10;99.90;;;;;;5014872;28;20449;-73
2022/08/08 08:10:12;;;;;;;3.73;2.70;;;20.10;99.90;;;;;;5014709;28;20471;-73
2022/08/08 08:12:45;;;;;;;5.20;3.17;;;20.20;99.90;;;;;;5014780;28;20459;-73
2022/08/08 08:15:15;;;;;;;5.13;2.73;;;20.40;99.90;;;;;;5014266;28;20470;-74
2022/08/08 08:17:45;;;;;;;6.77;3.87;;;20.50;99.90;;;;;;5014313;28;20835;-73
2022/08/08 08:20:14;;;;;;;3.40;2.70;;;20.70;99.90;;;;;;5014197;28;20802;-74
2022/08/08 08:22:41;;;;;;;4.50;2.57;;;20.90;99.90;;;;;;5014709;28;20447;-73
2022/08/08 08:25:09;;;;;;;4.20;2.70;;;21.00;99.90;;;;;;5013596;28;21006;-73
2022/08/08 08:27:37;;;;;;;5.50;3.10;;;21.10;99.90;;;;;;5014111;28;20959;-73
2022/08/08 08:30:05;;;;;;;3.20;2.60;;;21.20;99.90;;;;;;5014005;28;20547;-73
2022/08/08 08:32:32;;;;;;;3.53;2.83;;;21.30;99.90;;;;;;5013924;28;20985;-73
2022/08/08 08:35:00;;;;;;;4.30;3.30;;;21.40;99.90;;;;;;5014074;28;20935;-73
2022/08/08 08:37:27;;;;;;;3.77;3.00;;;21.50;99.90;;;;;;5013670;28;20805;-73
2022/08/08 08:39:54;;;;;;;2.70;2.47;;;21.60;99.90;;;;;;5014177;28;20546;-73
2022/08/08 08:42:21;;;;;;;3.80;3.20;;;21.80;99.90;;;;;;5013775;28;21021;-73
2022/08/08 08:44:50;;;;;;;3.70;2.60;;;21.90;99.90;;;;;;5013664;28;20494;-73
2022/08/08 08:47:19;;;;;;;5.10;2.63;;;22.00;99.90;;;;;;5013873;28;20466;-73
2022/08/08 08:49:45;;;;;;;3.43;3.00;;;22.20;99.90;;;;;;5014024;28;20542;-72
2022/08/08 08:52:16;;;;;;;6.20;3.27;;;22.40;99.90;;;;;;5013607;28;20982;-72
2022/08/08 08:54:45;;;;;;;4.80;2.93;;;22.60;99.90;;;;;;5013632;28;20453;-72
2022/08/08 08:57:13;;;;;;;6.23;2.90;;;22.80;99.90;;;;;;5013825;28;20457;-72
2022/08/08 08:59:43;;;;;;;4.73;2.80;;;22.90;99.90;;;;;;5013582;28;20462;-72
2022/08/08 09:02:19;;;;;;;2.80;2.53;;;23.20;99.90;;;;;;5013953;28;20486;-72
2022/08/08 09:04:48;;;;;;;3.70;2.70;;;23.40;99.90;;;;;;5013019;28;21001;-72
2022/08/08 09:07:19;;;;;;;4.63;2.50;;;23.50;99.90;;;;;;5013449;28;20805;-72
2022/08/08 09:09:49;;;;;;;2.60;2.33;;;23.60;99.90;;;;;;5012779;28;20447;-73
2022/08/08 09:12:19;;;;;;;2.40;2.20;;;23.90;99.90;;;;;;5013492;28;20474;-73
2022/08/08 09:14:47;;;;;;;2.87;2.10;;;23.90;99.90;;;;;;5012975;28;20829;-74
2022/08/08 09:17:16;;;;;;;1.97;1.70;;;24.30;99.90;;;;;;5013106;28;20459;-72
2022/08/08 09:19:43;;;;;;;2.00;1.80;;;24.50;99.90;;;;;;5013389;28;20481;-72
2022/08/08 09:22:10;;;;;;;4.43;1.90;;;24.70;99.90;;;;;;5013229;28;20475;-72
2022/08/08 09:24:38;;;;;;;1.40;1.23;;;24.90;99.90;;;;;;5013154;28;20497;-72
2022/08/08 09:27:08;;;;;;;2.70;1.50;;;25.10;99.30;;;;;;5013009;28;20861;-72
2022/08/08 09:29:48;;;;;;;2.20;1.20;;;25.40;98.30;;;;;;5012717;28;20952;-73
2022/08/08 09:32:22;;;;;;;1.87;1.40;;;25.60;94.40;;;;;;5013033;28;20489;-72
2022/08/08 09:34:51;;;;;;;2.00;1.53;;;25.80;94.60;;;;;;5012689;28;20915;-72
2022/08/08 09:37:19;;;;;;;1.70;1.20;;;26.10;94.40;;;;;;5012928;28;20465;-72
2022/08/08 09:39:59;;;;;;;2.20;1.50;;;26.40;94.00;;;;;;5013081;28;20461;-72
2022/08/08 09:42:34;;;;;;;2.30;1.37;;;26.60;93.90;;;;;;5012674;28;20910;-72
2022/08/08 09:45:06;;;;;;;2.10;1.60;;;26.70;93.00;;;;;;5012636;28;20486;-73
2022/08/08 09:47:36;;;;;;;1.83;1.43;;;27.00;93.00;;;;;;5013161;28;20439;-72
2022/08/08 09:50:06;;;;;;;2.03;1.53;;;27.30;92.50;;;;;;5012870;28;20461;-73
2022/08/08 09:52:35;;;;;;;1.73;1.50;;;27.40;92.30;;;;;;5012424;28;20482;-72
2022/08/08 09:55:02;;;;;;;2.50;1.37;;;27.50;91.90;;;;;;5012600;28;20455;-73
2022/08/08 09:57:33;;;;;;;2.40;1.50;;;27.60;92.10;;;;;;5012714;28;20457;-73
2022/08/08 10:00:01;;;;;;;2.33;1.40;;;27.90;92.00;;;;;;5012861;28;20537;-72
2022/08/08 10:02:35;;;;;;;1.57;1.30;;;28.30;89.60;;;;;;5012277;28;20482;-72
2022/08/08 10:05:08;;;;;;;1.70;1.50;;;28.50;90.90;;;;;;5012183;28;20474;-72
2022/08/08 10:07:35;;;;;;;3.43;1.63;;;28.50;87.80;;;;;;5012657;28;20451;-72
2022/08/08 10:10:02;;;;;;;1.60;1.50;;;28.60;90.30;;;;;;5012476;28;20462;-73
2022/08/08 10:12:35;;;;;;;1.70;1.50;;;28.80;89.90;;;;;;5012368;28;20478;-72
2022/08/08 10:15:03;;;;;;;2.57;1.90;;;28.90;89.50;;;;;;5051592;23;20498;-77
2022/08/08 10:17:32;;;;;;;4.03;2.00;;;29.10;90.30;;;;;;5011849;28;20466;-78
2022/08/08 10:20:02;;;;;;;2.00;1.57;;;29.20;89.80;;;;;;5012368;28;20458;-78
2022/08/08 10:22:31;;;;;;;2.00;1.73;;;29.20;89.20;;;;;;5012127;28;20843;-77
2022/08/08 10:25:03;;;;;;;2.60;2.00;;;29.40;88.90;;;;;;5011745;28;21046;-79
2022/08/08 10:27:39;;;;;;;3.93;1.70;;;29.60;89.60;;;;;;5012556;28;20462;-78
2022/08/08 10:30:07;;;;;;;2.70;1.90;;;29.60;88.90;;;;;;5011898;28;20455;-78
2022/08/08 10:32:36;;;;;;;1.80;1.63;;;29.90;87.30;;;;;;5011981;28;20462;-78
2022/08/08 10:35:08;;;;;;;2.37;1.70;;;29.80;84.80;;;;;;5011889;28;20487;-78
2022/08/08 10:37:35;;;;;;;2.77;1.90;;;29.90;86.90;;;;;;5012110;28;20454;-78
2022/08/08 10:40:13;;;;;;;2.50;1.73;;;29.90;86.60;;;;;;5011874;28;20463;-78
2022/08/08 10:42:41;;;;;;;2.97;2.17;;;30.00;89.20;;;;;;5011740;28;20465;-78
2022/08/08 10:45:10;;;;;;;3.03;1.70;;;30.20;87.20;;;;;;5011696;28;20517;-78
2022/08/08 10:47:38;;;;;;;3.17;1.67;;;30.30;88.50;;;;;;5012043;28;20489;-78
2022/08/08 10:50:08;;;;;;;2.67;1.50;;;30.40;84.80;;;;;;5012092;28;20467;-78
2022/08/08 10:52:38;;;;;;;3.30;2.13;;;30.40;82.30;;;;;;5011893;28;20534;-78
2022/08/08 10:55:07;;;;;;;3.33;1.60;;;30.40;83.40;;;;;;5011251;28;20978;-78
2022/08/08 10:57:39;;;;;;;2.50;1.40;;;30.50;82.10;;;;;;5011837;28;20461;-78
2022/08/08 11:00:07;;;;;;;5.30;1.73;;;30.60;82.10;;;;;;5011860;28;20468;-79
2022/08/08 11:02:34;;;;;;;2.57;1.83;;;30.70;81.00;;;;;;5011695;28;20962;-78
2022/08/08 11:05:04;;;;;;;2.77;1.70;;;30.60;79.80;;;;;;5011318;28;20526;-78
2022/08/08 11:07:33;;;;;;;2.10;1.60;;;30.60;79.30;;;;;;5011754;28;20470;-78
2022/08/08 11:10:02;;;;;;;2.03;1.53;;;30.60;80.90;;;;;;5011715;28;20454;-78
2022/08/08 11:12:29;;;;;;;2.63;1.93;;;30.60;79.10;;;;;;5011717;28;20459;-78
2022/08/08 11:14:58;;;;;;;2.60;1.90;;;30.70;80.10;;;;;;5011442;28;20482;-78
2022/08/08 11:17:27;;;;;;;2.57;1.80;;;30.70;78.80;;;;;;5011703;28;20470;-78
2022/08/08 11:19:54;;;;;;;2.63;1.50;;;30.70;78.60;;;;;;5011465;28;21127;-78
2022/08/08 11:22:28;;;;;;;2.50;1.80;;;30.70;78.90;;;;;;5011771;28;20455;-78
2022/08/08 11:25:00;;;;;;;2.80;1.50;;;30.90;80.80;;;;;;5011691;28;20565;-78
2022/08/08 11:27:31;;;;;;;3.27;1.63;;;31.00;78.00;;;;;;5011754;28;20462;-78
2022/08/08 11:30:00;;;;;;;3.00;1.83;;;31.10;77.70;;;;;;5011537;28;20459;-78
2022/08/08 11:32:30;;;;;;;3.17;1.60;;;31.30;77.10;;;;;;5011339;28;20470;-78
2022/08/08 11:35:04;;;;;;;2.47;1.83;;;31.40;75.40;;;;;;5014998;28;20478;-78
2022/08/08 11:37:32;;;;;;;1.90;1.70;;;31.50;75.00;;;;;;5015455;28;20521;-78
2022/08/08 11:40:02;;;;;;;2.37;1.40;;;31.60;74.00;;;;;;5015142;28;20477;-78
2022/08/08 11:42:30;;;;;;;3.00;1.63;;;31.80;75.50;;;;;;5014974;28;20466;-78
2022/08/08 11:44:57;;;;;;;2.67;1.33;;;31.80;71.60;;;;;;5014317;28;20559;-78
2022/08/08 11:47:25;;;;;;;2.27;1.50;;;31.80;72.70;;;;;;5015054;28;20454;-78
2022/08/08 11:49:54;;;;;;;2.03;1.60;;;31.90;70.80;;;;;;5015090;28;20869;-78
2022/08/08 11:52:23;;;;;;;4.77;1.50;;;31.90;72.70;;;;;;5014888;28;20458;-80
2022/08/08 11:54:50;;;;;;;2.50;1.50;;;31.90;72.10;;;;;;5014443;28;20510;-78
2022/08/08 11:57:23;;;;;;;3.13;1.50;;;32.00;73.90;;;;;;5014681;28;20827;-79
2022/08/08 11:59:56;;;;;;;3.80;2.53;;;32.00;71.20;;;;;;5015265;28;20451;-78
2022/08/08 12:02:24;;;;;;;2.53;1.50;;;32.20;72.80;;;;;;5014758;28;20455;-78
2022/08/08 12:05:00;;;;;;;1.43;1.30;;;32.50;72.60;;;;;;5014498;28;20491;-78
2022/08/08 12:07:27;;;;;;;2.47;1.73;;;32.40;69.30;;;;;;5014867;28;20518;-78
2022/08/08 12:09:55;;;;;;;5.80;1.37;;;32.30;71.50;;;;;;5014806;28;20553;-78
2022/08/08 12:12:25;;;;;;;3.53;1.40;;;32.20;70.10;;;;;;5014382;28;20954;-78
2022/08/08 12:15:02;;;;;;;1.97;1.20;;;32.30;69.00;;;;;;5014187;28;20532;-78
2022/08/08 12:17:35;;;;;;;6.60;1.77;;;32.30;69.10;;;;;;5014540;28;20461;-78
2022/08/08 12:20:03;;;;;;;3.77;1.63;;;32.30;69.70;;;;;;5014265;28;20455;-78
2022/08/08 12:22:32;;;;;;;3.33;1.50;;;32.30;68.70;;;;;;5013972;28;20458;-78
2022/08/08 12:24:59;;;;;;;1.40;1.30;;;32.20;69.90;;;;;;5014020;28;20495;-78
2022/08/08 12:27:36;;;;;;;3.73;1.50;;;32.30;71.70;;;;;;5014160;28;20835;-78
2022/08/08 12:30:04;;;;;;;4.20;1.60;;;32.40;70.30;;;;;;5014067;28;21021;-78
2022/08/08 12:32:41;;;;;;;4.17;1.30;;;32.50;71.40;;;;;;5014292;28;20463;-78
2022/08/08 12:35:19;;;;;;;1.80;1.70;;;32.60;71.00;;;;;;5013885;28;20481;-79
2022/08/08 12:37:47;;;;;;;3.27;1.50;;;32.60;70.40;;;;;;5014220;28;20447;-78
2022/08/08 12:40:15;;;;;;;1.60;1.27;;;32.60;70.40;;;;;;5014187;28;20528;-78
2022/08/08 12:42:47;;;;;;;4.30;1.60;;;32.60;70.40;;;;;;5014227;28;20454;-78
2022/08/08 12:45:15;;;;;;;3.00;1.40;;;32.60;68.70;;;;;;5013325;28;20938;-78
2022/08/08 12:47:42;;;;;;;1.60;1.37;;;32.60;68.30;;;;;;5013895;28;20466;-78
2022/08/08 12:50:10;;;;;;;3.30;1.60;;;32.50;69.60;;;;;;5013770;28;20965;-78
2022/08/08 12:52:38;;;;;;;9.50;1.80;;;32.60;69.20;;;;;;5013712;28;20495;-78
2022/08/08 12:55:07;;;;;;;3.10;1.47;;;33.00;68.30;;;;;;5013659;28;20479;-78
2022/08/08 12:57:34;;;;;;;7.30;1.77;;;33.00;69.10;;;;;;5013878;28;20466;-78
2022/08/08 13:00:03;;;;;;;2.30;1.47;;;33.00;68.20;;;;;;5013233;28;20461;-78
2022/08/08 13:02:32;;;;;;;1.80;1.30;;;32.90;67.10;;;;;;5013751;28;20490;-78
2022/08/08 13:05:01;;;;;;;2.13;1.37;;;32.70;66.30;;;;;;5013533;28;20581;-78
2022/08/08 13:07:35;;;;;;;1.83;1.50;;;32.60;68.50;;;;;;5013320;28;20459;-78
2022/08/08 13:10:07;;;;;;;1.80;1.10;;;32.60;69.00;;;;;;5013251;28;20469;-78
2022/08/08 13:12:36;;;;;;;3.70;1.77;;;32.60;67.20;;;;;;5013057;28;20439;-79
2022/08/08 13:15:06;;;;;;;4.40;1.53;;;32.60;67.00;;;;;;5013031;28;20479;-78
2022/08/08 13:17:34;;;;;;;2.37;1.40;;;32.60;67.30;;;;;;5013434;28;20462;-78
2022/08/08 13:20:01;;;;;;;5.77;1.60;;;32.70;67.30;;;;;;5013143;28;20951;-78
2022/08/08 13:22:28;;;;;;;1.40;1.27;;;32.70;67.60;;;;;;5013078;28;20513;-78
2022/08/08 13:24:55;;;;;;;2.23;1.30;;;32.70;67.80;;;;;;5012389;28;20990;-78
2022/08/08 13:27:27;;;;;;;2.73;1.57;;;32.70;65.70;;;;;;5013011;28;21014;-77
2022/08/08 13:29:56;;;;;;;2.13;1.30;;;32.80;67.80;;;;;;5013400;28;20458;-78
2022/08/08 13:32:25;;;;;;;2.70;1.10;;;32.70;67.20;;;;;;5013243;28;20517;-79
2022/08/08 13:34:54;;;;;;;1.30;1.10;;;32.80;66.90;;;;;;5012743;28;20481;-77
2022/08/08 13:37:22;;;;;;;2.10;1.13;;;32.70;65.20;;;;;;5012645;28;20872;-77
2022/08/08 13:39:50;;;;;;;1.53;1.03;;;32.70;65.80;;;;;;5013242;28;20605;-78
2022/08/08 13:42:17;;;;;;;3.60;1.40;;;32.70;65.50;;;;;;5013087;28;20462;-78
2022/08/08 13:44:44;;;;;;;4.73;1.47;;;32.70;64.00;;;;;;5012644;28;20481;-78
2022/08/08 13:47:16;;;;;;;2.50;1.20;;;32.80;64.30;;;;;;5012993;28;20451;-78
2022/08/08 13:49:55;;;;;;;5.00;1.50;;;32.80;65.50;;;;;;5013725;28;20443;-78
2022/08/08 13:52:24;;;;;;;1.80;1.03;;;32.80;66.20;;;;;;5013201;28;20975;-77
2022/08/08 13:54:54;;;;;;;1.87;1.37;;;32.70;65.50;;;;;;5013020;28;20482;-77
2022/08/08 13:57:26;;;;;;;2.77;1.30;;;32.80;66.30;;;;;;5012992;28;20549;-77
2022/08/08 14:00:08;;;;;;;2.27;1.33;;;32.80;66.30;;;;;;5013088;28;20812;-78
2022/08/08 14:02:35;;;;;;;2.70;0.97;;;32.90;65.10;;;;;;5012227;28;20454;-77
2022/08/08 14:05:06;;;;;;;2.37;1.50;;;32.80;62.50;;;;;;5012278;28;20489;-78
2022/08/08 14:07:35;;;;;;;2.40;1.67;;;32.70;65.00;;;;;;5012259;28;20463;-78
2022/08/08 14:10:04;;;;;;;1.77;1.43;;;32.70;64.20;;;;;;5012391;28;20888;-78
2022/08/08 14:12:34;;;;;;;5.00;1.70;;;32.70;64.60;;;;;;5012373;28;20565;-78
2022/08/08 14:15:02;;;;;;;2.23;1.30;;;32.70;66.00;;;;;;5011917;28;20540;-78
2022/08/08 14:17:28;;;;;;;3.53;1.33;;;32.70;66.30;;;;;;5012127;28;21005;-78
2022/08/08 14:20:02;;;;;;;1.67;1.40;;;32.70;66.40;;;;;;5012336;28;20454;-77
2022/08/08 14:22:30;;;;;;;2.70;1.20;;;32.70;65.30;;;;;;5012713;28;20451;-78
2022/08/08 14:24:59;;;;;;;4.30;1.17;;;32.70;65.30;;;;;;5011895;28;20561;-78
2022/08/08 14:27:30;;;;;;;1.87;1.10;;;32.70;65.10;;;;;;5011903;28;20457;-78
2022/08/08 14:30:00;;;;;;;1.87;1.27;;;32.70;63.80;;;;;;5012045;28;20549;-78
2022/08/08 14:32:27;;;;;;;5.07;1.40;;;32.70;64.50;;;;;;5012237;28;20459;-79
2022/08/08 14:34:56;;;;;;;3.03;1.37;;;32.70;65.10;;;;;;5011953;28;20479;-78
2022/08/08 14:37:24;;;;;;;2.70;1.50;;;32.80;63.80;;;;;;5012004;28;20447;-79
2022/08/08 14:39:55;;;;;;;2.50;1.10;;;32.80;64.30;;;;;;5011795;28;20447;-79
2022/08/08 14:42:34;;;;;;;1.20;1.00;;;32.80;65.90;;;;;;5012161;28;20529;-78
2022/08/08 14:45:05;;;;;;;4.57;3.20;;;32.90;65.00;;;;;;5011754;28;20532;-79
2022/08/08 14:47:32;;;;;;;1.63;1.50;;;32.90;63.70;;;;;;5011890;28;20950;-79
2022/08/08 14:50:11;;;;;;;3.80;2.00;;;32.90;64.90;;;;;;5012066;28;20471;-78
2022/08/08 14:52:46;;;;;;;2.60;1.20;;;32.90;64.80;;;;;;5011736;28;20954;-79
2022/08/08 14:55:16;;;;;;;1.23;1.00;;;32.90;64.70;;;;;;5011699;28;20963;-79
2022/08/08 14:57:43;;;;;;;2.50;1.07;;;32.90;63.40;;;;;;5012085;28;20530;-78
2022/08/08 15:00:11;;;;;;;3.70;1.13;;;32.90;64.60;;;;;;5011994;28;20509;-78
2022/08/08 15:02:38;;;;;;;2.00;1.17;;;32.90;63.30;;;;;;5011739;28;20454;-80
2022/08/08 15:05:06;;;;;;;1.30;1.10;;;32.90;64.00;;;;;;5011267;28;20478;-77
2022/08/08 15:07:33;;;;;;;3.07;1.40;;;32.90;63.60;;;;;;5011913;28;20490;-78
2022/08/08 15:10:00;;;;;;;2.20;1.23;;;32.90;62.30;;;;;;5015589;28;20450;-78
2022/08/08 15:12:29;;;;;;;2.53;1.50;;;32.90;62.60;;;;;;5015666;28;20497;-78
2022/08/08 15:14:56;;;;;;;2.40;1.23;;;32.90;62.90;;;;;;5015224;28;20538;-78
2022/08/08 15:17:23;;;;;;;1.77;1.23;;;32.90;63.00;;;;;;5015556;28;20827;-78
2022/08/08 15:19:50;;;;;;;1.67;1.20;;;32.90;60.80;;;;;;5015667;28;20470;-77
2022/08/08 15:22:17;;;;;;;3.53;1.40;;;32.90;62.50;;;;;;5015350;28;20457;-78
2022/08/08 15:24:44;;;;;;;2.50;1.10;;;32.90;63.40;;;;;;5015185;28;20558;-77
2022/08/08 15:27:11;;;;;;;3.00;1.17;;;32.90;61.40;;;;;;5015451;28;20501;-78
2022/08/08 15:29:39;;;;;;;3.13;1.00;;;32.90;60.80;;;;;;5015311;28;20453;-78
2022/08/08 15:32:07;;;;;;;1.23;0.87;;;32.90;61.30;;;;;;5015251;28;20462;-78
2022/08/08 15:34:34;;;;;;;4.13;1.30;;;32.90;61.70;;;;;;5014799;28;20482;-78
2022/08/08 15:37:03;;;;;;;2.70;1.50;;;32.90;61.30;;;;;;5015257;28;20970;-78
2022/08/08 15:39:31;;;;;;;3.70;2.10;;;32.80;61.20;;;;;;5015372;28;20504;-78
2022/08/08 15:41:59;;;;;;;3.40;1.20;;;32.80;63.30;;;;;;5015247;28;20489;-77
2022/08/08 15:44:26;;;;;;;1.63;1.00;;;32.90;61.80;;;;;;5014468;28;20474;-78
2022/08/08 15:46:56;;;;;;;1.67;1.13;;;32.90;61.40;;;;;;5015028;28;20498;-78
2022/08/08 15:49:23;;;;;;;4.63;1.50;;;32.90;61.90;;;;;;5014949;28;20462;-78
2022/08/08 15:51:51;;;;;;;1.83;1.00;;;32.90;60.80;;;;;;5015190;28;20490;-78
2022/08/08 15:54:19;;;;;;;1.97;1.20;;;32.90;59.00;;;;;;5014844;28;20467;-78
2022/08/08 15:56:46;;;;;;;5.00;1.10;;;33.00;59.50;;;;;;5015100;28;20455;-78
2022/08/08 15:59:12;;;;;;;2.90;0.80;;;33.10;61.00;;;;;;5014506;28;20458;-78
2022/08/08 16:01:39;;;;;;;3.93;1.10;;;33.10;59.10;;;;;;5014940;28;20465;-78
2022/08/08 16:04:07;;;;;;;2.10;1.50;;;33.10;60.90;;;;;;5014386;28;20454;-78
2022/08/08 16:06:34;;;;;;;2.77;1.10;;;33.10;60.70;;;;;;5014434;28;20864;-78
2022/08/08 16:09:01;;;;;;;1.40;0.87;;;33.20;59.80;;;;;;5014515;28;20973;-78
2022/08/08 16:11:28;;;;;;;3.50;1.17;;;33.20;61.10;;;;;;5014660;28;20494;-79
2022/08/08 16:13:55;;;;;;;4.57;1.20;;;33.30;60.20;;;;;;5014271;28;20884;-78
2022/08/08 16:16:21;;;;;;;3.27;1.10;;;33.30;59.70;;;;;;5037267;23;20882;-73
2022/08/08 16:18:48;;;;;;;4.17;1.27;;;33.30;61.60;;;;;;5014192;28;20453;-72
2022/08/08 16:21:17;;;;;;;2.60;1.10;;;33.30;59.80;;;;;;5014285;28;20969;-72
2022/08/08 16:23:43;;;;;;;4.40;1.10;;;33.30;59.50;;;;;;5014687;28;20457;-72
2022/08/08 16:26:11;;;;;;;1.40;0.93;;;33.20;59.70;;;;;;5013966;28;20892;-72
2022/08/08 16:28:38;;;;;;;4.97;1.27;;;33.30;61.50;;;;;;5014190;28;20541;-72
2022/08/08 16:31:05;;;;;;;2.40;1.17;;;33.20;59.40;;;;;;5013846;28;20458;-72
2022/08/08 16:33:32;;;;;;;2.60;1.17;;;33.10;60.00;;;;;;5014146;28;20837;-72
2022/08/08 16:35:59;;;;;;;1.20;0.87;;;33.10;59.40;;;;;;5013868;28;20474;-72
2022/08/08 16:38:27;;;;;;;4.30;1.13;;;33.10;60.20;;;;;;5014338;28;20541;-72
2022/08/08 16:40:55;;;;;;;3.20;1.97;;;33.00;61.20;;;;;;5013798;28;20463;-73
2022/08/08 16:43:22;;;;;;;1.67;1.10;;;33.00;60.90;;;;;;5013602;28;20947;-72
2022/08/08 16:45:49;;;;;;;1.30;1.00;;;32.90;60.70;;;;;;5013652;28;20487;-72
2022/08/08 16:48:16;;;;;;;1.20;1.00;;;32.90;60.50;;;;;;5014151;28;20463;-72
2022/08/08 16:50:42;;;;;;;3.10;1.37;;;32.80;60.60;;;;;;5013944;28;20958;-72
2022/08/08 16:53:09;;;;;;;3.70;1.57;;;32.70;60.10;;;;;;5013814;28;20461;-73
2022/08/08 16:55:38;;;;;;;2.83;1.30;;;32.50;60.40;;;;;;5013468;28;20471;-72
2022/08/08 16:58:05;;;;;;;1.77;1.00;;;32.50;61.70;;;;;;5013830;28;20542;-73
2022/08/08 17:00:32;;;;;;;1.40;1.00;;;32.40;60.60;;;;;;5013909;28;20461;-73